sensor_id;sensor_type;location;lat;lon;timestamp;P1;durP1;ratioP1;P2;durP2;ratioP2
56329;SDS011;42236;48.058;10.632;2023-01-23T00:02:03;10.47;;;6.70;;
56329;SDS011;42236;48.058;10.632;2023-01-23T00:04:48;14.07;;;8.53;;
56329;SDS011;42236;48.058;10.632;2023-01-23T00:07:34;13.27;;;7.13;;
56329;SDS011;42236;48.058;10.632;2023-01-23T00:10:19;11.07;;;7.33;;
56329;SDS011;42236;48.058;10.632;2023-01-23T00:13:05;15.20;;;8.00;;
56329;SDS011;42236;48.058;10.632;2023-01-23T00:15:51;14.97;;;7.87;;
56329;SDS011;42236;48.058;10.632;2023-01-23T00:18:37;19.07;;;10.30;;
56329;SDS011;42236;48.058;10.632;2023-01-23T00:21:24;20.83;;;10.97;;
56329;SDS011;42236;48.058;10.632;2023-01-23T00:24:11;18.20;;;9.20;;
56329;SDS011;42236;48.058;10.632;2023-01-23T00:26:57;20.53;;;11.67;;
56329;SDS011;42236;48.058;10.632;2023-01-23T00:29:43;21.47;;;9.80;;
56329;SDS011;42236;48.058;10.632;2023-01-23T00:32:29;19.20;;;9.60;;
56329;SDS011;42236;48.058;10.632;2023-01-23T00:35:15;19.17;;;10.27;;
56329;SDS011;42236;48.058;10.632;2023-01-23T00:38:00;10.60;;;6.07;;
56329;SDS011;42236;48.058;10.632;2023-01-23T00:40:46;10.13;;;4.87;;
56329;SDS011;42236;48.058;10.632;2023-01-23T00:43:32;8.63;;;5.57;;
56329;SDS011;42236;48.058;10.632;2023-01-23T00:46:18;8.03;;;5.00;;
56329;SDS011;42236;48.058;10.632;2023-01-23T00:49:05;8.60;;;4.83;;
56329;SDS011;42236;48.058;10.632;2023-01-23T00:51:51;6.10;;;4.30;;
56329;SDS011;42236;48.058;10.632;2023-01-23T00:54:40;15.70;;;8.73;;
56329;SDS011;42236;48.058;10.632;2023-01-23T00:57:26;14.43;;;7.53;;
56329;SDS011;42236;48.058;10.632;2023-01-23T01:00:12;18.43;;;9.20;;
56329;SDS011;42236;48.058;10.632;2023-01-23T01:02:58;14.63;;;8.27;;
56329;SDS011;42236;48.058;10.632;2023-01-23T01:05:44;16.40;;;9.30;;
56329;SDS011;42236;48.058;10.632;2023-01-23T01:08:29;18.00;;;9.63;;
56329;SDS011;42236;48.058;10.632;2023-01-23T01:11:16;17.93;;;9.33;;
56329;SDS011;42236;48.058;10.632;2023-01-23T01:14:02;18.90;;;9.97;;
56329;SDS011;42236;48.058;10.632;2023-01-23T01:16:48;15.77;;;8.87;;
56329;SDS011;42236;48.058;10.632;2023-01-23T01:19:33;16.93;;;9.40;;
56329;SDS011;42236;48.058;10.632;2023-01-23T01:22:19;19.83;;;9.57;;
56329;SDS011;42236;48.058;10.632;2023-01-23T01:25:05;16.27;;;9.47;;
56329;SDS011;42236;48.058;10.632;2023-01-23T01:27:51;15.63;;;8.83;;
56329;SDS011;42236;48.058;10.632;2023-01-23T01:30:37;17.40;;;9.70;;
56329;SDS011;42236;48.058;10.632;2023-01-23T01:33:22;19.67;;;10.37;;
56329;SDS011;42236;48.058;10.632;2023-01-23T01:36:10;18.03;;;10.40;;
56329;SDS011;42236;48.058;10.632;2023-01-23T01:38:58;18.87;;;10.33;;
56329;SDS011;42236;48.058;10.632;2023-01-23T01:41:43;17.50;;;10.27;;
56329;SDS011;42236;48.058;10.632;2023-01-23T01:44:47;19.83;;;10.00;;
56329;SDS011;42236;48.058;10.632;2023-01-23T01:47:36;18.30;;;9.87;;
56329;SDS011;42236;48.058;10.632;2023-01-23T01:50:22;18.03;;;10.23;;
56329;SDS011;42236;48.058;10.632;2023-01-23T01:53:08;20.87;;;11.03;;
56329;SDS011;42236;48.058;10.632;2023-01-23T01:55:55;17.73;;;9.80;;
56329;SDS011;42236;48.058;10.632;2023-01-23T01:58:43;18.23;;;10.33;;
56329;SDS011;42236;48.058;10.632;2023-01-23T02:01:31;18.50;;;9.83;;
56329;SDS011;42236;48.058;10.632;2023-01-23T02:04:17;17.17;;;9.77;;
56329;SDS011;42236;48.058;10.632;2023-01-23T02:07:06;21.83;;;10.87;;
56329;SDS011;42236;48.058;10.632;2023-01-23T02:09:55;18.33;;;9.67;;
56329;SDS011;42236;48.058;10.632;2023-01-23T02:12:48;20.27;;;10.20;;
56329;SDS011;42236;48.058;10.632;2023-01-23T02:15:36;23.13;;;11.37;;
56329;SDS011;42236;48.058;10.632;2023-01-23T02:18:22;24.27;;;11.83;;
56329;SDS011;42236;48.058;10.632;2023-01-23T02:21:09;22.70;;;10.80;;
56329;SDS011;42236;48.058;10.632;2023-01-23T02:26:52;24.87;;;11.37;;
56329;SDS011;42236;48.058;10.632;2023-01-23T02:29:39;22.07;;;11.30;;
56329;SDS011;42236;48.058;10.632;2023-01-23T02:32:29;18.97;;;10.10;;
56329;SDS011;42236;48.058;10.632;2023-01-23T02:35:25;22.90;;;10.77;;
56329;SDS011;42236;48.058;10.632;2023-01-23T02:38:14;17.90;;;9.77;;
56329;SDS011;42236;48.058;10.632;2023-01-23T02:41:05;17.10;;;10.00;;
56329;SDS011;42236;48.058;10.632;2023-01-23T02:43:54;21.87;;;10.20;;
56329;SDS011;42236;48.058;10.632;2023-01-23T02:46:42;20.27;;;10.43;;
56329;SDS011;42236;48.058;10.632;2023-01-23T02:49:27;19.97;;;9.93;;
56329;SDS011;42236;48.058;10.632;2023-01-23T02:52:14;17.53;;;9.13;;
56329;SDS011;42236;48.058;10.632;2023-01-23T02:54:59;13.80;;;8.57;;
56329;SDS011;42236;48.058;10.632;2023-01-23T02:57:45;18.10;;;8.00;;
56329;SDS011;42236;48.058;10.632;2023-01-23T03:00:31;14.73;;;8.30;;
56329;SDS011;42236;48.058;10.632;2023-01-23T03:03:16;14.80;;;8.53;;
56329;SDS011;42236;48.058;10.632;2023-01-23T03:06:03;14.80;;;7.83;;
56329;SDS011;42236;48.058;10.632;2023-01-23T03:08:50;13.73;;;7.23;;
56329;SDS011;42236;48.058;10.632;2023-01-23T03:11:36;15.80;;;8.70;;
56329;SDS011;42236;48.058;10.632;2023-01-23T03:14:24;16.00;;;8.77;;
56329;SDS011;42236;48.058;10.632;2023-01-23T03:17:10;14.77;;;7.70;;
56329;SDS011;42236;48.058;10.632;2023-01-23T03:19:56;17.03;;;8.23;;
56329;SDS011;42236;48.058;10.632;2023-01-23T03:22:42;17.37;;;8.47;;
56329;SDS011;42236;48.058;10.632;2023-01-23T03:25:27;16.67;;;9.03;;
56329;SDS011;42236;48.058;10.632;2023-01-23T03:28:13;14.37;;;7.70;;
56329;SDS011;42236;48.058;10.632;2023-01-23T03:31:17;17.10;;;9.30;;
56329;SDS011;42236;48.058;10.632;2023-01-23T03:34:03;20.37;;;9.93;;
56329;SDS011;42236;48.058;10.632;2023-01-23T03:36:49;17.43;;;9.17;;
56329;SDS011;42236;48.058;10.632;2023-01-23T03:39:35;18.70;;;8.80;;
56329;SDS011;42236;48.058;10.632;2023-01-23T03:42:39;18.63;;;9.37;;
56329;SDS011;42236;48.058;10.632;2023-01-23T03:45:25;19.07;;;9.73;;
56329;SDS011;42236;48.058;10.632;2023-01-23T03:48:10;21.03;;;9.77;;
56329;SDS011;42236;48.058;10.632;2023-01-23T03:50:56;21.23;;;10.20;;
56329;SDS011;42236;48.058;10.632;2023-01-23T03:53:42;16.77;;;8.53;;
56329;SDS011;42236;48.058;10.632;2023-01-23T03:56:28;21.90;;;10.83;;
56329;SDS011;42236;48.058;10.632;2023-01-23T03:59:13;19.23;;;10.27;;
56329;SDS011;42236;48.058;10.632;2023-01-23T04:01:59;15.37;;;9.43;;
56329;SDS011;42236;48.058;10.632;2023-01-23T04:04:45;19.73;;;10.50;;
56329;SDS011;42236;48.058;10.632;2023-01-23T04:07:31;21.43;;;10.37;;
56329;SDS011;42236;48.058;10.632;2023-01-23T04:10:17;22.10;;;11.50;;
56329;SDS011;42236;48.058;10.632;2023-01-23T04:13:02;24.30;;;10.90;;
56329;SDS011;42236;48.058;10.632;2023-01-23T04:15:48;18.17;;;10.43;;
56329;SDS011;42236;48.058;10.632;2023-01-23T04:18:34;21.97;;;12.10;;
56329;SDS011;42236;48.058;10.632;2023-01-23T04:21:20;19.60;;;10.47;;
56329;SDS011;42236;48.058;10.632;2023-01-23T04:24:06;22.40;;;11.73;;
56329;SDS011;42236;48.058;10.632;2023-01-23T04:26:51;19.13;;;11.33;;
56329;SDS011;42236;48.058;10.632;2023-01-23T04:29:38;22.43;;;10.90;;
56329;SDS011;42236;48.058;10.632;2023-01-23T04:32:23;22.17;;;11.70;;
56329;SDS011;42236;48.058;10.632;2023-01-23T04:35:09;25.50;;;12.20;;
56329;SDS011;42236;48.058;10.632;2023-01-23T04:37:55;22.33;;;11.10;;
56329;SDS011;42236;48.058;10.632;2023-01-23T04:40:41;21.40;;;11.47;;
56329;SDS011;42236;48.058;10.632;2023-01-23T04:43:26;21.97;;;10.77;;
56329;SDS011;42236;48.058;10.632;2023-01-23T04:46:12;28.97;;;13.07;;
56329;SDS011;42236;48.058;10.632;2023-01-23T04:48:58;27.83;;;13.50;;
56329;SDS011;42236;48.058;10.632;2023-01-23T04:51:44;17.30;;;10.07;;
56329;SDS011;42236;48.058;10.632;2023-01-23T04:54:32;25.27;;;12.93;;
56329;SDS011;42236;48.058;10.632;2023-01-23T04:57:17;26.87;;;11.23;;
56329;SDS011;42236;48.058;10.632;2023-01-23T05:00:03;21.20;;;10.73;;
56329;SDS011;42236;48.058;10.632;2023-01-23T05:02:49;20.97;;;10.57;;
56329;SDS011;42236;48.058;10.632;2023-01-23T05:05:35;21.10;;;10.97;;
56329;SDS011;42236;48.058;10.632;2023-01-23T05:08:21;27.40;;;12.77;;
56329;SDS011;42236;48.058;10.632;2023-01-23T05:11:07;30.43;;;12.90;;
56329;SDS011;42236;48.058;10.632;2023-01-23T05:13:52;23.60;;;11.47;;
56329;SDS011;42236;48.058;10.632;2023-01-23T05:16:38;19.57;;;9.73;;
56329;SDS011;42236;48.058;10.632;2023-01-23T05:19:24;20.30;;;10.73;;
56329;SDS011;42236;48.058;10.632;2023-01-23T05:22:09;24.50;;;10.70;;
56329;SDS011;42236;48.058;10.632;2023-01-23T05:24:55;21.20;;;10.90;;
56329;SDS011;42236;48.058;10.632;2023-01-23T05:27:41;23.23;;;12.17;;
56329;SDS011;42236;48.058;10.632;2023-01-23T05:30:26;22.30;;;11.23;;
56329;SDS011;42236;48.058;10.632;2023-01-23T05:33:12;18.60;;;10.40;;
56329;SDS011;42236;48.058;10.632;2023-01-23T05:35:58;20.17;;;11.27;;
56329;SDS011;42236;48.058;10.632;2023-01-23T05:38:44;23.50;;;10.80;;
56329;SDS011;42236;48.058;10.632;2023-01-23T05:41:30;19.93;;;11.37;;
56329;SDS011;42236;48.058;10.632;2023-01-23T05:44:16;21.37;;;10.73;;
56329;SDS011;42236;48.058;10.632;2023-01-23T05:47:01;24.43;;;11.30;;
56329;SDS011;42236;48.058;10.632;2023-01-23T05:49:47;22.60;;;11.50;;
56329;SDS011;42236;48.058;10.632;2023-01-23T05:52:33;22.63;;;11.93;;
56329;SDS011;42236;48.058;10.632;2023-01-23T05:55:19;23.33;;;10.50;;
56329;SDS011;42236;48.058;10.632;2023-01-23T05:58:05;23.00;;;11.30;;
56329;SDS011;42236;48.058;10.632;2023-01-23T06:00:51;24.10;;;11.07;;
56329;SDS011;42236;48.058;10.632;2023-01-23T06:03:36;22.47;;;10.83;;
56329;SDS011;42236;48.058;10.632;2023-01-23T06:06:22;26.90;;;11.50;;
56329;SDS011;42236;48.058;10.632;2023-01-23T06:09:08;23.10;;;11.27;;
56329;SDS011;42236;48.058;10.632;2023-01-23T06:11:54;26.17;;;12.20;;
56329;SDS011;42236;48.058;10.632;2023-01-23T06:14:39;24.10;;;11.27;;
56329;SDS011;42236;48.058;10.632;2023-01-23T06:17:25;24.73;;;12.17;;
56329;SDS011;42236;48.058;10.632;2023-01-23T06:20:11;21.87;;;11.73;;
56329;SDS011;42236;48.058;10.632;2023-01-23T06:22:57;25.10;;;12.20;;
56329;SDS011;42236;48.058;10.632;2023-01-23T06:25:42;25.50;;;11.43;;
56329;SDS011;42236;48.058;10.632;2023-01-23T06:28:28;23.43;;;12.63;;
56329;SDS011;42236;48.058;10.632;2023-01-23T06:31:14;25.17;;;12.30;;
56329;SDS011;42236;48.058;10.632;2023-01-23T06:34:00;29.07;;;13.07;;
56329;SDS011;42236;48.058;10.632;2023-01-23T06:36:45;26.03;;;13.20;;
56329;SDS011;42236;48.058;10.632;2023-01-23T06:39:32;24.33;;;11.30;;
56329;SDS011;42236;48.058;10.632;2023-01-23T06:42:18;23.13;;;12.17;;
56329;SDS011;42236;48.058;10.632;2023-01-23T06:45:04;25.27;;;12.40;;
56329;SDS011;42236;48.058;10.632;2023-01-23T06:47:51;27.53;;;13.17;;
56329;SDS011;42236;48.058;10.632;2023-01-23T06:50:37;25.43;;;12.20;;
56329;SDS011;42236;48.058;10.632;2023-01-23T06:53:26;26.20;;;12.97;;
56329;SDS011;42236;48.058;10.632;2023-01-23T06:56:12;26.47;;;12.90;;
56329;SDS011;42236;48.058;10.632;2023-01-23T06:58:58;26.57;;;13.33;;
56329;SDS011;42236;48.058;10.632;2023-01-23T07:01:43;29.10;;;13.60;;
56329;SDS011;42236;48.058;10.632;2023-01-23T07:04:29;24.43;;;11.33;;
56329;SDS011;42236;48.058;10.632;2023-01-23T07:07:15;26.83;;;14.07;;
56329;SDS011;42236;48.058;10.632;2023-01-23T07:10:00;29.63;;;13.63;;
56329;SDS011;42236;48.058;10.632;2023-01-23T07:12:46;29.23;;;13.33;;
56329;SDS011;42236;48.058;10.632;2023-01-23T07:15:32;29.23;;;13.20;;
56329;SDS011;42236;48.058;10.632;2023-01-23T07:18:18;36.20;;;14.60;;
56329;SDS011;42236;48.058;10.632;2023-01-23T07:21:04;19.53;;;10.60;;
56329;SDS011;42236;48.058;10.632;2023-01-23T07:23:50;22.83;;;12.07;;
56329;SDS011;42236;48.058;10.632;2023-01-23T07:26:36;26.97;;;13.07;;
56329;SDS011;42236;48.058;10.632;2023-01-23T07:29:22;24.80;;;13.30;;
56329;SDS011;42236;48.058;10.632;2023-01-23T07:32:07;30.57;;;12.97;;
56329;SDS011;42236;48.058;10.632;2023-01-23T07:34:53;33.67;;;14.80;;
56329;SDS011;42236;48.058;10.632;2023-01-23T07:37:39;33.73;;;16.60;;
56329;SDS011;42236;48.058;10.632;2023-01-23T07:40:25;30.93;;;12.70;;
56329;SDS011;42236;48.058;10.632;2023-01-23T07:43:10;33.07;;;14.43;;
56329;SDS011;42236;48.058;10.632;2023-01-23T07:45:59;38.90;;;15.70;;
56329;SDS011;42236;48.058;10.632;2023-01-23T07:48:45;31.83;;;15.73;;
56329;SDS011;42236;48.058;10.632;2023-01-23T07:51:31;38.90;;;16.50;;
56329;SDS011;42236;48.058;10.632;2023-01-23T07:54:18;40.57;;;15.57;;
56329;SDS011;42236;48.058;10.632;2023-01-23T07:57:04;32.83;;;13.47;;
56329;SDS011;42236;48.058;10.632;2023-01-23T07:59:49;42.73;;;18.90;;
56329;SDS011;42236;48.058;10.632;2023-01-23T08:02:36;34.70;;;14.00;;
56329;SDS011;42236;48.058;10.632;2023-01-23T08:05:22;39.40;;;17.57;;
56329;SDS011;42236;48.058;10.632;2023-01-23T08:08:08;50.20;;;16.63;;
56329;SDS011;42236;48.058;10.632;2023-01-23T08:10:53;33.40;;;15.27;;
56329;SDS011;42236;48.058;10.632;2023-01-23T08:13:39;44.77;;;16.50;;
56329;SDS011;42236;48.058;10.632;2023-01-23T08:16:25;52.43;;;18.43;;
56329;SDS011;42236;48.058;10.632;2023-01-23T08:19:10;66.57;;;16.90;;
56329;SDS011;42236;48.058;10.632;2023-01-23T08:21:56;34.20;;;14.63;;
56329;SDS011;42236;48.058;10.632;2023-01-23T08:24:42;33.27;;;14.13;;
56329;SDS011;42236;48.058;10.632;2023-01-23T08:27:27;35.70;;;14.37;;
56329;SDS011;42236;48.058;10.632;2023-01-23T08:30:13;38.53;;;13.80;;
56329;SDS011;42236;48.058;10.632;2023-01-23T08:32:59;44.97;;;17.30;;
56329;SDS011;42236;48.058;10.632;2023-01-23T08:35:48;34.30;;;15.17;;
56329;SDS011;42236;48.058;10.632;2023-01-23T08:38:35;41.43;;;15.93;;
56329;SDS011;42236;48.058;10.632;2023-01-23T08:41:21;46.87;;;16.90;;
56329;SDS011;42236;48.058;10.632;2023-01-23T08:44:07;54.27;;;20.53;;
56329;SDS011;42236;48.058;10.632;2023-01-23T08:46:53;51.77;;;17.27;;
56329;SDS011;42236;48.058;10.632;2023-01-23T08:49:39;28.90;;;13.70;;
56329;SDS011;42236;48.058;10.632;2023-01-23T08:52:24;43.77;;;19.57;;
56329;SDS011;42236;48.058;10.632;2023-01-23T08:55:10;41.33;;;16.67;;
56329;SDS011;42236;48.058;10.632;2023-01-23T08:57:57;34.20;;;13.33;;
56329;SDS011;42236;48.058;10.632;2023-01-23T09:00:43;18.40;;;9.63;;
56329;SDS011;42236;48.058;10.632;2023-01-23T09:03:29;34.97;;;11.43;;
56329;SDS011;42236;48.058;10.632;2023-01-23T09:06:15;25.60;;;9.60;;
56329;SDS011;42236;48.058;10.632;2023-01-23T09:09:03;28.03;;;13.40;;
56329;SDS011;42236;48.058;10.632;2023-01-23T09:11:49;34.27;;;16.20;;
56329;SDS011;42236;48.058;10.632;2023-01-23T09:14:35;27.10;;;12.60;;
56329;SDS011;42236;48.058;10.632;2023-01-23T09:17:20;34.37;;;14.73;;
56329;SDS011;42236;48.058;10.632;2023-01-23T09:20:06;33.33;;;16.77;;
56329;SDS011;42236;48.058;10.632;2023-01-23T09:22:53;48.13;;;21.13;;
56329;SDS011;42236;48.058;10.632;2023-01-23T09:25:39;45.07;;;18.17;;
56329;SDS011;42236;48.058;10.632;2023-01-23T09:28:25;57.57;;;21.67;;
56329;SDS011;42236;48.058;10.632;2023-01-23T09:31:11;43.80;;;17.20;;
56329;SDS011;42236;48.058;10.632;2023-01-23T09:33:58;112.20;;;35.87;;
56329;SDS011;42236;48.058;10.632;2023-01-23T09:36:44;56.43;;;21.00;;
56329;SDS011;42236;48.058;10.632;2023-01-23T09:39:29;82.00;;;27.40;;
56329;SDS011;42236;48.058;10.632;2023-01-23T09:42:23;39.03;;;18.97;;
56329;SDS011;42236;48.058;10.632;2023-01-23T09:45:17;31.10;;;14.00;;
56329;SDS011;42236;48.058;10.632;2023-01-23T09:48:08;29.77;;;12.93;;
56329;SDS011;42236;48.058;10.632;2023-01-23T09:51:21;32.97;;;15.40;;
56329;SDS011;42236;48.058;10.632;2023-01-23T09:54:15;27.27;;;13.67;;
56329;SDS011;42236;48.058;10.632;2023-01-23T09:57:54;29.23;;;13.10;;
56329;SDS011;42236;48.058;10.632;2023-01-23T10:00:30;28.30;;;13.63;;
56329;SDS011;42236;48.058;10.632;2023-01-23T10:03:17;21.33;;;9.20;;
56329;SDS011;42236;48.058;10.632;2023-01-23T10:06:22;22.63;;;11.20;;
56329;SDS011;42236;48.058;10.632;2023-01-23T10:09:16;24.97;;;11.43;;
56329;SDS011;42236;48.058;10.632;2023-01-23T10:12:16;20.30;;;9.93;;
56329;SDS011;42236;48.058;10.632;2023-01-23T10:15:27;22.40;;;10.17;;
56329;SDS011;42236;48.058;10.632;2023-01-23T10:26:45;23.57;;;11.87;;
56329;SDS011;42236;48.058;10.632;2023-01-23T10:29:38;22.17;;;11.23;;
56329;SDS011;42236;48.058;10.632;2023-01-23T10:32:30;20.83;;;11.17;;
56329;SDS011;42236;48.058;10.632;2023-01-23T10:35:33;18.67;;;9.87;;
56329;SDS011;42236;48.058;10.632;2023-01-23T10:41:22;17.17;;;9.20;;
56329;SDS011;42236;48.058;10.632;2023-01-23T10:44:11;19.50;;;9.47;;
56329;SDS011;42236;48.058;10.632;2023-01-23T10:47:00;18.03;;;9.63;;
56329;SDS011;42236;48.058;10.632;2023-01-23T10:49:48;18.97;;;9.17;;
56329;SDS011;42236;48.058;10.632;2023-01-23T10:52:35;19.73;;;9.73;;
56329;SDS011;42236;48.058;10.632;2023-01-23T10:55:26;21.17;;;9.93;;
56329;SDS011;42236;48.058;10.632;2023-01-23T10:58:35;19.33;;;9.93;;
56329;SDS011;42236;48.058;10.632;2023-01-23T11:01:24;24.30;;;10.73;;
56329;SDS011;42236;48.058;10.632;2023-01-23T11:04:18;26.77;;;12.33;;
56329;SDS011;42236;48.058;10.632;2023-01-23T11:12:54;29.93;;;14.80;;
56329;SDS011;42236;48.058;10.632;2023-01-23T11:15:40;29.30;;;12.20;;
56329;SDS011;42236;48.058;10.632;2023-01-23T11:21:26;21.57;;;11.50;;
56329;SDS011;42236;48.058;10.632;2023-01-23T11:27:19;25.27;;;11.77;;
56329;SDS011;42236;48.058;10.632;2023-01-23T11:30:44;26.70;;;12.73;;
56329;SDS011;42236;48.058;10.632;2023-01-23T11:36:32;45.17;;;17.83;;
56329;SDS011;42236;48.058;10.632;2023-01-23T11:39:30;36.73;;;16.07;;
56329;SDS011;42236;48.058;10.632;2023-01-23T11:42:26;46.83;;;18.27;;
56329;SDS011;42236;48.058;10.632;2023-01-23T11:51:37;29.33;;;12.77;;
56329;SDS011;42236;48.058;10.632;2023-01-23T11:54:41;29.50;;;13.67;;
56329;SDS011;42236;48.058;10.632;2023-01-23T11:57:58;21.37;;;11.10;;
56329;SDS011;42236;48.058;10.632;2023-01-23T12:00:52;17.03;;;10.03;;
56329;SDS011;42236;48.058;10.632;2023-01-23T12:13:05;21.30;;;10.63;;
56329;SDS011;42236;48.058;10.632;2023-01-23T12:16:18;17.40;;;9.10;;
56329;SDS011;42236;48.058;10.632;2023-01-23T12:19:28;24.13;;;11.27;;
56329;SDS011;42236;48.058;10.632;2023-01-23T12:34:37;54.70;;;21.03;;
56329;SDS011;42236;48.058;10.632;2023-01-23T12:40:52;77.10;;;24.30;;
56329;SDS011;42236;48.058;10.632;2023-01-23T12:47:15;17.83;;;10.73;;
56329;SDS011;42236;48.058;10.632;2023-01-23T12:50:14;42.83;;;19.80;;
56329;SDS011;42236;48.058;10.632;2023-01-23T12:53:09;38.83;;;20.50;;
56329;SDS011;42236;48.058;10.632;2023-01-23T12:56:01;31.13;;;14.30;;
56329;SDS011;42236;48.058;10.632;2023-01-23T13:01:58;20.47;;;10.33;;
56329;SDS011;42236;48.058;10.632;2023-01-23T13:08:21;26.53;;;11.30;;
56329;SDS011;42236;48.058;10.632;2023-01-23T13:11:17;20.77;;;10.60;;
56329;SDS011;42236;48.058;10.632;2023-01-23T13:23:30;23.43;;;11.60;;
56329;SDS011;42236;48.058;10.632;2023-01-23T13:29:07;17.20;;;10.30;;
56329;SDS011;42236;48.058;10.632;2023-01-23T13:32:31;19.97;;;10.97;;
56329;SDS011;42236;48.058;10.632;2023-01-23T13:38:28;31.73;;;15.80;;
56329;SDS011;42236;48.058;10.632;2023-01-23T13:41:26;26.73;;;12.97;;
56329;SDS011;42236;48.058;10.632;2023-01-23T13:44:25;26.57;;;12.13;;
56329;SDS011;42236;48.058;10.632;2023-01-23T13:47:19;28.40;;;11.50;;
56329;SDS011;42236;48.058;10.632;2023-01-23T13:50:35;23.80;;;11.67;;
56329;SDS011;42236;48.058;10.632;2023-01-23T13:53:26;21.23;;;10.33;;
56329;SDS011;42236;48.058;10.632;2023-01-23T13:56:30;22.37;;;10.70;;
56329;SDS011;42236;48.058;10.632;2023-01-23T13:59:27;20.33;;;11.00;;
56329;SDS011;42236;48.058;10.632;2023-01-23T14:02:21;16.40;;;7.57;;
56329;SDS011;42236;48.058;10.632;2023-01-23T14:05:32;24.33;;;10.43;;
56329;SDS011;42236;48.058;10.632;2023-01-23T14:08:20;20.07;;;11.23;;
56329;SDS011;42236;48.058;10.632;2023-01-23T14:11:14;18.87;;;9.30;;
56329;SDS011;42236;48.058;10.632;2023-01-23T14:14:01;21.33;;;10.23;;
56329;SDS011;42236;48.058;10.632;2023-01-23T14:17:07;16.67;;;7.53;;
56329;SDS011;42236;48.058;10.632;2023-01-23T14:19:56;24.13;;;10.57;;
56329;SDS011;42236;48.058;10.632;2023-01-23T14:22:45;17.17;;;8.80;;
56329;SDS011;42236;48.058;10.632;2023-01-23T14:25:31;20.13;;;10.43;;
56329;SDS011;42236;48.058;10.632;2023-01-23T14:28:17;18.30;;;9.93;;
56329;SDS011;42236;48.058;10.632;2023-01-23T14:31:04;16.80;;;10.00;;
56329;SDS011;42236;48.058;10.632;2023-01-23T14:33:54;20.77;;;10.50;;
56329;SDS011;42236;48.058;10.632;2023-01-23T14:36:45;19.10;;;9.90;;
56329;SDS011;42236;48.058;10.632;2023-01-23T14:39:34;18.47;;;10.37;;
56329;SDS011;42236;48.058;10.632;2023-01-23T14:42:22;18.83;;;9.90;;
56329;SDS011;42236;48.058;10.632;2023-01-23T14:45:11;18.70;;;9.97;;
56329;SDS011;42236;48.058;10.632;2023-01-23T14:47:58;19.20;;;10.77;;
56329;SDS011;42236;48.058;10.632;2023-01-23T14:50:44;18.60;;;9.97;;
56329;SDS011;42236;48.058;10.632;2023-01-23T14:53:30;22.07;;;10.50;;
56329;SDS011;42236;48.058;10.632;2023-01-23T14:56:15;18.90;;;9.93;;
56329;SDS011;42236;48.058;10.632;2023-01-23T14:59:05;22.13;;;11.47;;
56329;SDS011;42236;48.058;10.632;2023-01-23T15:01:55;26.97;;;13.53;;
56329;SDS011;42236;48.058;10.632;2023-01-23T15:04:42;33.80;;;16.43;;
56329;SDS011;42236;48.058;10.632;2023-01-23T15:07:27;43.17;;;18.67;;
56329;SDS011;42236;48.058;10.632;2023-01-23T15:10:21;37.10;;;15.43;;
56329;SDS011;42236;48.058;10.632;2023-01-23T15:16:23;20.70;;;10.73;;
56329;SDS011;42236;48.058;10.632;2023-01-23T15:22:19;26.33;;;13.00;;
56329;SDS011;42236;48.058;10.632;2023-01-23T15:25:16;22.40;;;11.43;;
56329;SDS011;42236;48.058;10.632;2023-01-23T15:31:40;21.93;;;11.33;;
56329;SDS011;42236;48.058;10.632;2023-01-23T15:34:30;30.10;;;14.43;;
56329;SDS011;42236;48.058;10.632;2023-01-23T15:37:22;29.23;;;11.83;;
56329;SDS011;42236;48.058;10.632;2023-01-23T15:40:17;24.63;;;12.53;;
56329;SDS011;42236;48.058;10.632;2023-01-23T15:43:11;22.30;;;11.20;;
56329;SDS011;42236;48.058;10.632;2023-01-23T15:46:03;23.77;;;12.47;;
56329;SDS011;42236;48.058;10.632;2023-01-23T15:48:48;25.33;;;13.07;;
56329;SDS011;42236;48.058;10.632;2023-01-23T15:51:34;32.77;;;13.93;;
56329;SDS011;42236;48.058;10.632;2023-01-23T15:54:22;28.63;;;13.80;;
56329;SDS011;42236;48.058;10.632;2023-01-23T15:57:11;28.07;;;13.13;;
56329;SDS011;42236;48.058;10.632;2023-01-23T15:59:57;30.57;;;15.17;;
56329;SDS011;42236;48.058;10.632;2023-01-23T16:02:43;27.17;;;12.97;;
56329;SDS011;42236;48.058;10.632;2023-01-23T16:05:30;27.37;;;13.73;;
56329;SDS011;42236;48.058;10.632;2023-01-23T16:08:19;62.40;;;23.63;;
56329;SDS011;42236;48.058;10.632;2023-01-23T16:11:07;70.53;;;25.93;;
56329;SDS011;42236;48.058;10.632;2023-01-23T16:13:52;23.07;;;11.57;;
56329;SDS011;42236;48.058;10.632;2023-01-23T16:16:38;23.07;;;12.27;;
56329;SDS011;42236;48.058;10.632;2023-01-23T16:19:24;24.73;;;11.93;;
56329;SDS011;42236;48.058;10.632;2023-01-23T16:22:19;26.83;;;13.03;;
56329;SDS011;42236;48.058;10.632;2023-01-23T16:25:21;23.73;;;11.23;;
56329;SDS011;42236;48.058;10.632;2023-01-23T16:28:22;31.17;;;14.57;;
56329;SDS011;42236;48.058;10.632;2023-01-23T16:31:11;24.23;;;11.77;;
56329;SDS011;42236;48.058;10.632;2023-01-23T16:33:57;22.57;;;11.73;;
56329;SDS011;42236;48.058;10.632;2023-01-23T16:36:43;27.00;;;12.63;;
56329;SDS011;42236;48.058;10.632;2023-01-23T16:39:29;23.07;;;11.33;;
56329;SDS011;42236;48.058;10.632;2023-01-23T16:42:18;24.40;;;13.03;;
56329;SDS011;42236;48.058;10.632;2023-01-23T16:45:25;22.83;;;12.27;;
56329;SDS011;42236;48.058;10.632;2023-01-23T16:48:12;27.00;;;12.63;;
56329;SDS011;42236;48.058;10.632;2023-01-23T16:51:03;25.63;;;11.33;;
56329;SDS011;42236;48.058;10.632;2023-01-23T16:53:56;20.10;;;11.23;;
56329;SDS011;42236;48.058;10.632;2023-01-23T16:56:43;22.30;;;11.53;;
56329;SDS011;42236;48.058;10.632;2023-01-23T16:59:33;24.23;;;11.87;;
56329;SDS011;42236;48.058;10.632;2023-01-23T17:02:24;22.60;;;11.67;;
56329;SDS011;42236;48.058;10.632;2023-01-23T17:05:14;21.60;;;10.83;;
56329;SDS011;42236;48.058;10.632;2023-01-23T17:08:19;24.73;;;11.93;;
56329;SDS011;42236;48.058;10.632;2023-01-23T17:11:06;22.13;;;10.87;;
56329;SDS011;42236;48.058;10.632;2023-01-23T17:13:56;18.87;;;10.07;;
56329;SDS011;42236;48.058;10.632;2023-01-23T17:16:47;20.97;;;10.20;;
56329;SDS011;42236;48.058;10.632;2023-01-23T17:19:36;19.40;;;10.67;;
56329;SDS011;42236;48.058;10.632;2023-01-23T17:22:26;17.77;;;9.60;;
56329;SDS011;42236;48.058;10.632;2023-01-23T17:25:15;20.57;;;10.60;;
56329;SDS011;42236;48.058;10.632;2023-01-23T17:28:03;20.27;;;9.57;;
56329;SDS011;42236;48.058;10.632;2023-01-23T17:30:49;27.03;;;10.93;;
56329;SDS011;42236;48.058;10.632;2023-01-23T17:33:37;21.37;;;10.03;;
56329;SDS011;42236;48.058;10.632;2023-01-23T17:36:22;23.13;;;10.73;;
56329;SDS011;42236;48.058;10.632;2023-01-23T17:39:10;22.73;;;10.70;;
56329;SDS011;42236;48.058;10.632;2023-01-23T17:41:56;44.77;;;19.63;;
56329;SDS011;42236;48.058;10.632;2023-01-23T17:44:41;32.50;;;14.20;;
56329;SDS011;42236;48.058;10.632;2023-01-23T17:47:27;24.17;;;9.73;;
56329;SDS011;42236;48.058;10.632;2023-01-23T17:50:17;17.57;;;9.73;;
56329;SDS011;42236;48.058;10.632;2023-01-23T17:53:05;27.40;;;13.60;;